sensor_id;sensor_type;location;lat;lon;timestamp;temperature;humidity
29663;DHT22;16578;53.266;7.920;2023-06-22T00:01:09;22.60;68.80
29663;DHT22;16578;53.266;7.920;2023-06-22T00:03:34;22.60;68.80
29663;DHT22;16578;53.266;7.920;2023-06-22T00:06:00;22.50;68.90
29663;DHT22;16578;53.266;7.920;2023-06-22T00:08:25;22.50;69.00
29663;DHT22;16578;53.266;7.920;2023-06-22T00:10:51;22.50;69.10
29663;DHT22;16578;53.266;7.920;2023-06-22T00:13:17;22.50;69.10
29663;DHT22;16578;53.266;7.920;2023-06-22T00:15:43;22.50;69.10
29663;DHT22;16578;53.266;7.920;2023-06-22T00:18:10;22.50;69.10
29663;DHT22;16578;53.266;7.920;2023-06-22T00:20:36;22.50;69.10
29663;DHT22;16578;53.266;7.920;2023-06-22T00:23:03;22.50;69.20
29663;DHT22;16578;53.266;7.920;2023-06-22T00:25:34;22.50;69.30
29663;DHT22;16578;53.266;7.920;2023-06-22T00:28:00;22.40;69.30
29663;DHT22;16578;53.266;7.920;2023-06-22T00:30:25;22.40;69.40
29663;DHT22;16578;53.266;7.920;2023-06-22T00:32:51;22.40;69.30
29663;DHT22;16578;53.266;7.920;2023-06-22T00:35:17;22.40;69.30
29663;DHT22;16578;53.266;7.920;2023-06-22T00:37:42;22.40;69.40
29663;DHT22;16578;53.266;7.920;2023-06-22T00:40:09;22.40;69.40
29663;DHT22;16578;53.266;7.920;2023-06-22T00:42:37;22.40;69.40
29663;DHT22;16578;53.266;7.920;2023-06-22T00:45:04;22.40;69.50
29663;DHT22;16578;53.266;7.920;2023-06-22T00:47:29;22.40;69.60
29663;DHT22;16578;53.266;7.920;2023-06-22T00:49:55;22.30;69.70
29663;DHT22;16578;53.266;7.920;2023-06-22T00:52:22;22.40;69.80
29663;DHT22;16578;53.266;7.920;2023-06-22T00:54:52;22.30;69.70
29663;DHT22;16578;53.266;7.920;2023-06-22T00:57:19;22.30;69.70
29663;DHT22;16578;53.266;7.920;2023-06-22T00:59:45;22.30;69.70
29663;DHT22;16578;53.266;7.920;2023-06-22T01:02:13;22.30;69.70
29663;DHT22;16578;53.266;7.920;2023-06-22T01:04:39;22.30;69.90
29663;DHT22;16578;53.266;7.920;2023-06-22T01:10:15;22.30;70.10
29663;DHT22;16578;53.266;7.920;2023-06-22T01:12:47;22.30;70.10
29663;DHT22;16578;53.266;7.920;2023-06-22T01:15:45;22.20;70.00
29663;DHT22;16578;53.266;7.920;2023-06-22T01:18:15;22.20;70.10
29663;DHT22;16578;53.266;7.920;2023-06-22T01:20:41;22.20;70.00
29663;DHT22;16578;53.266;7.920;2023-06-22T01:31:10;22.10;70.30
29663;DHT22;16578;53.266;7.920;2023-06-22T01:33:39;22.10;70.30
29663;DHT22;16578;53.266;7.920;2023-06-22T01:36:06;22.10;70.40
29663;DHT22;16578;53.266;7.920;2023-06-22T01:38:33;22.10;70.50
29663;DHT22;16578;53.266;7.920;2023-06-22T01:40:59;22.10;70.60
29663;DHT22;16578;53.266;7.920;2023-06-22T01:43:26;22.00;70.40
29663;DHT22;16578;53.266;7.920;2023-06-22T01:45:54;22.10;70.50
29663;DHT22;16578;53.266;7.920;2023-06-22T01:48:21;22.00;70.50
29663;DHT22;16578;53.266;7.920;2023-06-22T01:50:47;22.00;70.60
29663;DHT22;16578;53.266;7.920;2023-06-22T01:53:13;22.00;70.60
29663;DHT22;16578;53.266;7.920;2023-06-22T01:55:38;22.00;70.60
29663;DHT22;16578;53.266;7.920;2023-06-22T01:58:04;22.00;70.60
29663;DHT22;16578;53.266;7.920;2023-06-22T02:00:33;21.90;70.60
29663;DHT22;16578;53.266;7.920;2023-06-22T02:03:05;22.00;70.70
29663;DHT22;16578;53.266;7.920;2023-06-22T02:05:48;22.00;70.70
29663;DHT22;16578;53.266;7.920;2023-06-22T02:08:24;22.00;70.60
29663;DHT22;16578;53.266;7.920;2023-06-22T02:10:51;21.90;70.70
29663;DHT22;16578;53.266;7.920;2023-06-22T02:13:18;21.90;70.50
29663;DHT22;16578;53.266;7.920;2023-06-22T02:15:46;21.90;70.60
29663;DHT22;16578;53.266;7.920;2023-06-22T02:18:13;21.90;70.60
29663;DHT22;16578;53.266;7.920;2023-06-22T02:20:39;21.90;70.60
29663;DHT22;16578;53.266;7.920;2023-06-22T02:23:08;21.90;70.70
29663;DHT22;16578;53.266;7.920;2023-06-22T02:25:33;21.90;70.70
29663;DHT22;16578;53.266;7.920;2023-06-22T02:27:59;21.70;70.90
29663;DHT22;16578;53.266;7.920;2023-06-22T02:30:25;21.80;70.80
29663;DHT22;16578;53.266;7.920;2023-06-22T02:32:50;21.80;70.80
29663;DHT22;16578;53.266;7.920;2023-06-22T02:35:27;21.80;70.80
29663;DHT22;16578;53.266;7.920;2023-06-22T02:37:59;21.80;70.80
29663;DHT22;16578;53.266;7.920;2023-06-22T02:40:26;21.70;70.80
29663;DHT22;16578;53.266;7.920;2023-06-22T02:42:52;21.70;71.00
29663;DHT22;16578;53.266;7.920;2023-06-22T02:45:18;21.70;71.00
29663;DHT22;16578;53.266;7.920;2023-06-22T02:47:44;21.70;70.90
29663;DHT22;16578;53.266;7.920;2023-06-22T02:50:09;21.70;71.00
29663;DHT22;16578;53.266;7.920;2023-06-22T02:52:35;21.60;71.00
29663;DHT22;16578;53.266;7.920;2023-06-22T02:55:01;21.60;71.00
29663;DHT22;16578;53.266;7.920;2023-06-22T02:57:27;21.60;70.90
29663;DHT22;16578;53.266;7.920;2023-06-22T02:59:52;21.60;70.90
29663;DHT22;16578;53.266;7.920;2023-06-22T03:02:18;21.50;70.90
29663;DHT22;16578;53.266;7.920;2023-06-22T03:04:46;21.50;70.90
29663;DHT22;16578;53.266;7.920;2023-06-22T03:07:15;21.40;71.20
29663;DHT22;16578;53.266;7.920;2023-06-22T03:09:40;21.40;71.00
29663;DHT22;16578;53.266;7.920;2023-06-22T03:12:07;21.40;71.00
29663;DHT22;16578;53.266;7.920;2023-06-22T03:14:33;21.40;71.00
29663;DHT22;16578;53.266;7.920;2023-06-22T03:16:58;21.40;71.10
29663;DHT22;16578;53.266;7.920;2023-06-22T03:19:29;21.30;71.20
29663;DHT22;16578;53.266;7.920;2023-06-22T03:21:59;21.30;71.20
29663;DHT22;16578;53.266;7.920;2023-06-22T03:24:25;21.30;71.30
29663;DHT22;16578;53.266;7.920;2023-06-22T03:26:51;21.30;71.30
29663;DHT22;16578;53.266;7.920;2023-06-22T03:29:16;21.30;71.30
29663;DHT22;16578;53.266;7.920;2023-06-22T03:31:42;21.30;71.20
29663;DHT22;16578;53.266;7.920;2023-06-22T03:34:07;21.30;71.30
29663;DHT22;16578;53.266;7.920;2023-06-22T03:36:33;21.20;71.40
29663;DHT22;16578;53.266;7.920;2023-06-22T03:38:58;21.20;71.40
29663;DHT22;16578;53.266;7.920;2023-06-22T03:41:24;21.20;71.40
29663;DHT22;16578;53.266;7.920;2023-06-22T03:43:50;21.20;71.50
29663;DHT22;16578;53.266;7.920;2023-06-22T03:46:16;21.20;71.70
29663;DHT22;16578;53.266;7.920;2023-06-22T03:48:42;21.10;71.60
29663;DHT22;16578;53.266;7.920;2023-06-22T03:51:07;21.10;71.60
29663;DHT22;16578;53.266;7.920;2023-06-22T03:53:33;21.10;71.60
29663;DHT22;16578;53.266;7.920;2023-06-22T03:55:58;21.10;71.80
29663;DHT22;16578;53.266;7.920;2023-06-22T03:58:24;21.10;71.90
29663;DHT22;16578;53.266;7.920;2023-06-22T04:00:51;21.10;72.00
29663;DHT22;16578;53.266;7.920;2023-06-22T04:03:17;21.20;72.10
29663;DHT22;16578;53.266;7.920;2023-06-22T04:05:46;21.10;72.10
29663;DHT22;16578;53.266;7.920;2023-06-22T04:08:13;21.10;72.20
29663;DHT22;16578;53.266;7.920;2023-06-22T04:10:39;21.20;72.30
29663;DHT22;16578;53.266;7.920;2023-06-22T04:13:04;21.20;72.30
29663;DHT22;16578;53.266;7.920;2023-06-22T04:15:30;21.20;72.40
29663;DHT22;16578;53.266;7.920;2023-06-22T04:17:56;21.20;72.50
29663;DHT22;16578;53.266;7.920;2023-06-22T04:20:23;21.20;72.60
29663;DHT22;16578;53.266;7.920;2023-06-22T04:22:52;21.20;72.60
29663;DHT22;16578;53.266;7.920;2023-06-22T04:25:18;21.30;72.60
29663;DHT22;16578;53.266;7.920;2023-06-22T04:27:43;21.30;72.50
29663;DHT22;16578;53.266;7.920;2023-06-22T04:30:10;21.30;72.50
29663;DHT22;16578;53.266;7.920;2023-06-22T04:32:36;21.30;72.60
29663;DHT22;16578;53.266;7.920;2023-06-22T04:35:03;21.30;72.50
29663;DHT22;16578;53.266;7.920;2023-06-22T04:37:30;21.30;72.50
29663;DHT22;16578;53.266;7.920;2023-06-22T04:39:56;21.30;72.60
29663;DHT22;16578;53.266;7.920;2023-06-22T04:42:21;21.30;72.50
29663;DHT22;16578;53.266;7.920;2023-06-22T04:44:47;21.30;72.60
29663;DHT22;16578;53.266;7.920;2023-06-22T04:47:12;21.30;72.50
29663;DHT22;16578;53.266;7.920;2023-06-22T04:49:38;21.30;72.40
29663;DHT22;16578;53.266;7.920;2023-06-22T04:52:07;21.30;72.40
29663;DHT22;16578;53.266;7.920;2023-06-22T04:54:34;21.30;72.50
29663;DHT22;16578;53.266;7.920;2023-06-22T04:57:01;21.30;72.60
29663;DHT22;16578;53.266;7.920;2023-06-22T04:59:28;21.30;72.70
29663;DHT22;16578;53.266;7.920;2023-06-22T05:01:55;21.30;72.60
29663;DHT22;16578;53.266;7.920;2023-06-22T05:04:22;21.20;72.50
29663;DHT22;16578;53.266;7.920;2023-06-22T05:06:51;21.20;72.50
29663;DHT22;16578;53.266;7.920;2023-06-22T05:09:17;21.20;72.70
29663;DHT22;16578;53.266;7.920;2023-06-22T05:11:45;21.20;72.80
29663;DHT22;16578;53.266;7.920;2023-06-22T05:14:11;21.20;72.90
29663;DHT22;16578;53.266;7.920;2023-06-22T05:16:37;21.10;73.10
29663;DHT22;16578;53.266;7.920;2023-06-22T05:19:02;21.20;72.80
29663;DHT22;16578;53.266;7.920;2023-06-22T05:21:31;21.30;72.90
29663;DHT22;16578;53.266;7.920;2023-06-22T05:23:57;21.30;73.00
29663;DHT22;16578;53.266;7.920;2023-06-22T05:26:26;21.30;73.10
29663;DHT22;16578;53.266;7.920;2023-06-22T05:28:52;21.30;73.00
29663;DHT22;16578;53.266;7.920;2023-06-22T05:31:17;21.30;73.10
29663;DHT22;16578;53.266;7.920;2023-06-22T05:33:45;21.30;73.20
29663;DHT22;16578;53.266;7.920;2023-06-22T05:36:11;21.40;73.40
29663;DHT22;16578;53.266;7.920;2023-06-22T05:38:38;21.40;73.40
29663;DHT22;16578;53.266;7.920;2023-06-22T05:41:04;21.40;73.40
29663;DHT22;16578;53.266;7.920;2023-06-22T05:43:29;21.40;73.60
29663;DHT22;16578;53.266;7.920;2023-06-22T05:45:55;21.40;73.70
29663;DHT22;16578;53.266;7.920;2023-06-22T05:48:21;21.50;73.90
29663;DHT22;16578;53.266;7.920;2023-06-22T05:50:46;21.60;74.00
29663;DHT22;16578;53.266;7.920;2023-06-22T05:53:12;21.60;74.10
29663;DHT22;16578;53.266;7.920;2023-06-22T05:55:37;21.60;74.10
29663;DHT22;16578;53.266;7.920;2023-06-22T05:58:03;21.70;74.20
29663;DHT22;16578;53.266;7.920;2023-06-22T06:00:29;21.70;74.20
29663;DHT22;16578;53.266;7.920;2023-06-22T06:02:55;21.80;74.20
29663;DHT22;16578;53.266;7.920;2023-06-22T06:05:20;21.80;74.20
29663;DHT22;16578;53.266;7.920;2023-06-22T06:07:46;21.90;74.30
29663;DHT22;16578;53.266;7.920;2023-06-22T06:10:12;21.90;74.50
29663;DHT22;16578;53.266;7.920;2023-06-22T06:12:37;22.00;74.60
29663;DHT22;16578;53.266;7.920;2023-06-22T06:15:04;22.00;74.60
29663;DHT22;16578;53.266;7.920;2023-06-22T06:17:30;22.10;74.90
29663;DHT22;16578;53.266;7.920;2023-06-22T06:19:56;22.20;74.70
29663;DHT22;16578;53.266;7.920;2023-06-22T06:22:21;22.20;74.40
29663;DHT22;16578;53.266;7.920;2023-06-22T06:24:49;22.20;74.20
29663;DHT22;16578;53.266;7.920;2023-06-22T06:27:15;22.30;74.30
29663;DHT22;16578;53.266;7.920;2023-06-22T06:29:40;22.30;74.40
29663;DHT22;16578;53.266;7.920;2023-06-22T06:32:06;22.40;74.40
29663;DHT22;16578;53.266;7.920;2023-06-22T06:34:32;22.40;74.60
29663;DHT22;16578;53.266;7.920;2023-06-22T06:36:57;22.50;74.70
29663;DHT22;16578;53.266;7.920;2023-06-22T06:39:23;22.50;74.80
29663;DHT22;16578;53.266;7.920;2023-06-22T06:41:48;22.60;74.70
29663;DHT22;16578;53.266;7.920;2023-06-22T06:44:14;22.60;74.40
29663;DHT22;16578;53.266;7.920;2023-06-22T06:46:39;22.70;74.20
29663;DHT22;16578;53.266;7.920;2023-06-22T06:49:05;22.70;73.90
29663;DHT22;16578;53.266;7.920;2023-06-22T06:51:31;22.80;73.90
29663;DHT22;16578;53.266;7.920;2023-06-22T06:53:56;22.80;73.90
29663;DHT22;16578;53.266;7.920;2023-06-22T06:56:22;22.90;74.00
29663;DHT22;16578;53.266;7.920;2023-06-22T06:58:50;23.00;74.10
29663;DHT22;16578;53.266;7.920;2023-06-22T07:01:16;23.10;74.20
29663;DHT22;16578;53.266;7.920;2023-06-22T07:03:42;23.10;74.00
29663;DHT22;16578;53.266;7.920;2023-06-22T07:06:08;23.20;74.00
29663;DHT22;16578;53.266;7.920;2023-06-22T07:08:34;23.30;73.90
29663;DHT22;16578;53.266;7.920;2023-06-22T07:11:01;23.40;73.70
29663;DHT22;16578;53.266;7.920;2023-06-22T07:13:27;23.40;73.50
29663;DHT22;16578;53.266;7.920;2023-06-22T07:15:52;23.50;73.20
29663;DHT22;16578;53.266;7.920;2023-06-22T07:18:18;23.60;73.20
29663;DHT22;16578;53.266;7.920;2023-06-22T07:20:43;23.70;73.00
29663;DHT22;16578;53.266;7.920;2023-06-22T07:23:09;23.70;73.00
29663;DHT22;16578;53.266;7.920;2023-06-22T07:25:34;23.80;73.10
29663;DHT22;16578;53.266;7.920;2023-06-22T07:28:02;23.90;73.10
29663;DHT22;16578;53.266;7.920;2023-06-22T07:30:29;24.00;72.80
29663;DHT22;16578;53.266;7.920;2023-06-22T07:32:54;24.10;72.70
29663;DHT22;16578;53.266;7.920;2023-06-22T07:35:20;24.20;72.30
29663;DHT22;16578;53.266;7.920;2023-06-22T07:37:46;24.30;72.00
29663;DHT22;16578;53.266;7.920;2023-06-22T07:40:12;24.40;71.50
29663;DHT22;16578;53.266;7.920;2023-06-22T07:42:37;24.40;71.50
29663;DHT22;16578;53.266;7.920;2023-06-22T07:45:04;24.50;71.30
29663;DHT22;16578;53.266;7.920;2023-06-22T07:47:29;24.60;71.20
29663;DHT22;16578;53.266;7.920;2023-06-22T07:49:58;24.60;70.60
29663;DHT22;16578;53.266;7.920;2023-06-22T07:52:26;24.70;69.90
29663;DHT22;16578;53.266;7.920;2023-06-22T07:54:52;24.80;69.40
29663;DHT22;16578;53.266;7.920;2023-06-22T07:57:18;24.80;69.30
29663;DHT22;16578;53.266;7.920;2023-06-22T07:59:44;24.90;69.10
29663;DHT22;16578;53.266;7.920;2023-06-22T08:02:09;25.00;68.60
29663;DHT22;16578;53.266;7.920;2023-06-22T08:04:35;25.00;68.00
29663;DHT22;16578;53.266;7.920;2023-06-22T08:07:01;25.10;67.80
29663;DHT22;16578;53.266;7.920;2023-06-22T08:09:31;25.10;67.40
29663;DHT22;16578;53.266;7.920;2023-06-22T08:11:57;25.20;68.20
29663;DHT22;16578;53.266;7.920;2023-06-22T08:14:25;25.30;67.30
29663;DHT22;16578;53.266;7.920;2023-06-22T08:16:50;25.40;66.50
29663;DHT22;16578;53.266;7.920;2023-06-22T08:19:16;25.40;66.40
29663;DHT22;16578;53.266;7.920;2023-06-22T08:21:42;25.40;66.10
29663;DHT22;16578;53.266;7.920;2023-06-22T08:24:08;25.50;66.10
29663;DHT22;16578;53.266;7.920;2023-06-22T08:26:33;25.60;66.60
29663;DHT22;16578;53.266;7.920;2023-06-22T08:29:03;25.70;65.30
29663;DHT22;16578;53.266;7.920;2023-06-22T08:31:28;25.70;65.50
29663;DHT22;16578;53.266;7.920;2023-06-22T08:33:54;25.80;65.20
29663;DHT22;16578;53.266;7.920;2023-06-22T08:36:19;25.90;65.10
29663;DHT22;16578;53.266;7.920;2023-06-22T08:38:45;26.00;65.50
29663;DHT22;16578;53.266;7.920;2023-06-22T08:41:15;26.10;65.40
29663;DHT22;16578;53.266;7.920;2023-06-22T08:43:41;26.20;64.70
29663;DHT22;16578;53.266;7.920;2023-06-22T08:46:08;26.20;64.50
29663;DHT22;16578;53.266;7.920;2023-06-22T08:48:34;26.30;64.40
29663;DHT22;16578;53.266;7.920;2023-06-22T08:50:59;26.30;64.10
29663;DHT22;16578;53.266;7.920;2023-06-22T08:53:25;26.30;64.20
29663;DHT22;16578;53.266;7.920;2023-06-22T08:55:50;26.40;64.40
29663;DHT22;16578;53.266;7.920;2023-06-22T08:58:16;26.50;64.00
29663;DHT22;16578;53.266;7.920;2023-06-22T09:00:41;26.60;63.70
29663;DHT22;16578;53.266;7.920;2023-06-22T09:03:07;26.60;63.30
29663;DHT22;16578;53.266;7.920;2023-06-22T09:05:33;26.70;63.40
29663;DHT22;16578;53.266;7.920;2023-06-22T09:07:58;26.70;62.80
29663;DHT22;16578;53.266;7.920;2023-06-22T09:10:25;26.70;61.90
29663;DHT22;16578;53.266;7.920;2023-06-22T09:12:50;26.80;61.70
29663;DHT22;16578;53.266;7.920;2023-06-22T09:15:16;26.70;61.90
29663;DHT22;16578;53.266;7.920;2023-06-22T09:17:42;26.80;61.30
29663;DHT22;16578;53.266;7.920;2023-06-22T09:20:08;26.80;61.70
29663;DHT22;16578;53.266;7.920;2023-06-22T09:22:36;26.90;61.20
29663;DHT22;16578;53.266;7.920;2023-06-22T09:25:01;26.80;61.70
29663;DHT22;16578;53.266;7.920;2023-06-22T09:27:28;26.90;61.50
29663;DHT22;16578;53.266;7.920;2023-06-22T09:29:54;27.00;61.70
29663;DHT22;16578;53.266;7.920;2023-06-22T09:32:19;27.00;61.20
29663;DHT22;16578;53.266;7.920;2023-06-22T09:34:45;27.10;61.30
29663;DHT22;16578;53.266;7.920;2023-06-22T09:37:10;27.10;60.70
29663;DHT22;16578;53.266;7.920;2023-06-22T09:39:36;27.20;60.70
29663;DHT22;16578;53.266;7.920;2023-06-22T09:42:02;27.20;60.70
29663;DHT22;16578;53.266;7.920;2023-06-22T09:44:28;27.20;60.60
29663;DHT22;16578;53.266;7.920;2023-06-22T09:46:53;27.30;60.20
29663;DHT22;16578;53.266;7.920;2023-06-22T09:49:19;27.30;60.20
29663;DHT22;16578;53.266;7.920;2023-06-22T09:51:44;27.40;59.80
29663;DHT22;16578;53.266;7.920;2023-06-22T09:54:10;27.40;59.50
29663;DHT22;16578;53.266;7.920;2023-06-22T09:56:35;27.50;59.50
29663;DHT22;16578;53.266;7.920;2023-06-22T09:59:03;27.50;59.40
29663;DHT22;16578;53.266;7.920;2023-06-22T10:01:28;27.60;59.60
29663;DHT22;16578;53.266;7.920;2023-06-22T10:03:55;27.70;60.00
29663;DHT22;16578;53.266;7.920;2023-06-22T10:06:21;27.80;59.70
29663;DHT22;16578;53.266;7.920;2023-06-22T10:08:47;27.80;59.50
29663;DHT22;16578;53.266;7.920;2023-06-22T10:11:14;27.90;59.00
29663;DHT22;16578;53.266;7.920;2023-06-22T10:13:39;28.00;58.40
29663;DHT22;16578;53.266;7.920;2023-06-22T10:16:05;28.00;58.40
29663;DHT22;16578;53.266;7.920;2023-06-22T10:18:30;28.10;58.60
29663;DHT22;16578;53.266;7.920;2023-06-22T10:20:56;28.10;58.50
29663;DHT22;16578;53.266;7.920;2023-06-22T10:23:22;28.10;57.90
29663;DHT22;16578;53.266;7.920;2023-06-22T10:25:48;28.10;57.70
29663;DHT22;16578;53.266;7.920;2023-06-22T10:28:13;28.10;57.40
29663;DHT22;16578;53.266;7.920;2023-06-22T10:30:40;28.10;57.60
29663;DHT22;16578;53.266;7.920;2023-06-22T10:33:09;28.10;57.50
29663;DHT22;16578;53.266;7.920;2023-06-22T10:35:35;28.10;57.50
29663;DHT22;16578;53.266;7.920;2023-06-22T10:38:03;28.00;57.20
29663;DHT22;16578;53.266;7.920;2023-06-22T10:40:29;28.00;57.50
29663;DHT22;16578;53.266;7.920;2023-06-22T10:42:55;28.00;57.10
29663;DHT22;16578;53.266;7.920;2023-06-22T10:45:20;28.00;57.30
29663;DHT22;16578;53.266;7.920;2023-06-22T10:47:46;28.00;58.10
29663;DHT22;16578;53.266;7.920;2023-06-22T10:50:12;28.00;58.20
29663;DHT22;16578;53.266;7.920;2023-06-22T10:52:37;28.00;58.40
29663;DHT22;16578;53.266;7.920;2023-06-22T10:55:04;28.10;58.10
29663;DHT22;16578;53.266;7.920;2023-06-22T10:57:29;28.10;58.10
29663;DHT22;16578;53.266;7.920;2023-06-22T10:59:55;28.20;57.80
29663;DHT22;16578;53.266;7.920;2023-06-22T11:02:20;28.20;57.70
29663;DHT22;16578;53.266;7.920;2023-06-22T11:04:46;28.20;57.50
29663;DHT22;16578;53.266;7.920;2023-06-22T11:07:13;28.30;57.10
29663;DHT22;16578;53.266;7.920;2023-06-22T11:09:39;28.30;56.40
29663;DHT22;16578;53.266;7.920;2023-06-22T11:12:05;28.30;56.30
29663;DHT22;16578;53.266;7.920;2023-06-22T11:14:31;28.30;56.60
29663;DHT22;16578;53.266;7.920;2023-06-22T11:16:56;28.40;56.70
29663;DHT22;16578;53.266;7.920;2023-06-22T11:19:23;28.40;56.50
29663;DHT22;16578;53.266;7.920;2023-06-22T11:21:49;28.40;56.30
29663;DHT22;16578;53.266;7.920;2023-06-22T11:24:14;28.40;56.10
29663;DHT22;16578;53.266;7.920;2023-06-22T11:26:41;28.40;56.00
29663;DHT22;16578;53.266;7.920;2023-06-22T11:29:06;28.40;55.90
29663;DHT22;16578;53.266;7.920;2023-06-22T11:31:34;28.30;56.10
29663;DHT22;16578;53.266;7.920;2023-06-22T11:34:00;28.30;56.10
29663;DHT22;16578;53.266;7.920;2023-06-22T11:36:26;28.30;56.10
29663;DHT22;16578;53.266;7.920;2023-06-22T11:38:52;28.30;56.30
29663;DHT22;16578;53.266;7.920;2023-06-22T11:41:17;28.30;55.60
29663;DHT22;16578;53.266;7.920;2023-06-22T11:43:44;28.30;55.60
29663;DHT22;16578;53.266;7.920;2023-06-22T11:46:10;28.30;56.00
29663;DHT22;16578;53.266;7.920;2023-06-22T11:48:35;28.30;56.30
29663;DHT22;16578;53.266;7.920;2023-06-22T11:51:02;28.30;56.00
29663;DHT22;16578;53.266;7.920;2023-06-22T11:53:28;28.30;56.30
29663;DHT22;16578;53.266;7.920;2023-06-22T11:55:54;28.30;56.10
29663;DHT22;16578;53.266;7.920;2023-06-22T11:58:20;28.30;55.90
29663;DHT22;16578;53.266;7.920;2023-06-22T12:00:46;28.30;56.10
29663;DHT22;16578;53.266;7.920;2023-06-22T12:03:11;28.30;56.10
29663;DHT22;16578;53.266;7.920;2023-06-22T12:05:38;28.20;56.30
29663;DHT22;16578;53.266;7.920;2023-06-22T12:08:03;28.20;56.20
29663;DHT22;16578;53.266;7.920;2023-06-22T12:10:29;28.20;56.10
29663;DHT22;16578;53.266;7.920;2023-06-22T12:12:55;28.20;56.30
29663;DHT22;16578;53.266;7.920;2023-06-22T12:15:20;28.20;56.10
29663;DHT22;16578;53.266;7.920;2023-06-22T12:17:46;28.30;56.10
29663;DHT22;16578;53.266;7.920;2023-06-22T12:20:13;28.30;56.30
29663;DHT22;16578;53.266;7.920;2023-06-22T12:22:40;28.30;56.60
29663;DHT22;16578;53.266;7.920;2023-06-22T12:25:07;28.30;56.60
29663;DHT22;16578;53.266;7.920;2023-06-22T12:27:32;28.30;56.50
29663;DHT22;16578;53.266;7.920;2023-06-22T12:29:58;28.30;56.30
29663;DHT22;16578;53.266;7.920;2023-06-22T12:32:24;28.30;56.30
29663;DHT22;16578;53.266;7.920;2023-06-22T12:34:50;28.20;56.00
29663;DHT22;16578;53.266;7.920;2023-06-22T12:37:16;28.20;56.00
29663;DHT22;16578;53.266;7.920;2023-06-22T12:39:42;28.20;56.20
29663;DHT22;16578;53.266;7.920;2023-06-22T12:42:07;28.30;56.30
29663;DHT22;16578;53.266;7.920;2023-06-22T12:44:35;28.30;56.40
29663;DHT22;16578;53.266;7.920;2023-06-22T12:47:00;28.30;56.60
29663;DHT22;16578;53.266;7.920;2023-06-22T12:49:26;28.30;56.90
29663;DHT22;16578;53.266;7.920;2023-06-22T12:51:51;28.40;56.80
29663;DHT22;16578;53.266;7.920;2023-06-22T12:54:17;28.40;56.50
29663;DHT22;16578;53.266;7.920;2023-06-22T12:56:42;28.40;56.60
29663;DHT22;16578;53.266;7.920;2023-06-22T12:59:10;28.50;56.30
29663;DHT22;16578;53.266;7.920;2023-06-22T13:01:36;28.50;56.40
29663;DHT22;16578;53.266;7.920;2023-06-22T13:04:02;28.50;56.20
29663;DHT22;16578;53.266;7.920;2023-06-22T13:06:28;28.50;55.90
29663;DHT22;16578;53.266;7.920;2023-06-22T13:08:53;28.50;55.80
29663;DHT22;16578;53.266;7.920;2023-06-22T13:11:19;28.60;55.80
29663;DHT22;16578;53.266;7.920;2023-06-22T13:13:45;28.50;55.50
29663;DHT22;16578;53.266;7.920;2023-06-22T13:16:11;28.50;56.30
29663;DHT22;16578;53.266;7.920;2023-06-22T13:18:37;28.50;56.10
29663;DHT22;16578;53.266;7.920;2023-06-22T13:21:03;28.50;56.00
29663;DHT22;16578;53.266;7.920;2023-06-22T13:23:29;28.50;56.00
29663;DHT22;16578;53.266;7.920;2023-06-22T13:25:55;28.60;56.20
29663;DHT22;16578;53.266;7.920;2023-06-22T13:28:21;28.60;55.70
29663;DHT22;16578;53.266;7.920;2023-06-22T13:30:47;28.60;55.60
29663;DHT22;16578;53.266;7.920;2023-06-22T13:33:16;28.60;55.60
29663;DHT22;16578;53.266;7.920;2023-06-22T13:35:42;28.50;55.20
29663;DHT22;16578;53.266;7.920;2023-06-22T13:38:10;28.50;55.60
29663;DHT22;16578;53.266;7.920;2023-06-22T13:40:39;28.50;55.70
29663;DHT22;16578;53.266;7.920;2023-06-22T13:43:05;28.60;55.90
29663;DHT22;16578;53.266;7.920;2023-06-22T13:45:31;28.60;55.70
29663;DHT22;16578;53.266;7.920;2023-06-22T13:47:57;28.60;55.50
29663;DHT22;16578;53.266;7.920;2023-06-22T13:50:22;28.60;55.30
29663;DHT22;16578;53.266;7.920;2023-06-22T13:52:48;28.70;55.10
29663;DHT22;16578;53.266;7.920;2023-06-22T13:55:13;28.60;55.30
29663;DHT22;16578;53.266;7.920;2023-06-22T13:57:40;28.60;55.10
29663;DHT22;16578;53.266;7.920;2023-06-22T14:00:06;28.60;54.80
29663;DHT22;16578;53.266;7.920;2023-06-22T14:02:33;28.60;55.00
29663;DHT22;16578;53.266;7.920;2023-06-22T14:04:59;28.50;55.10
29663;DHT22;16578;53.266;7.920;2023-06-22T14:07:24;28.50;55.50
29663;DHT22;16578;53.266;7.920;2023-06-22T14:09:50;28.50;55.20
29663;DHT22;16578;53.266;7.920;2023-06-22T14:12:16;28.50;55.00
29663;DHT22;16578;53.266;7.920;2023-06-22T14:14:43;28.40;54.80
29663;DHT22;16578;53.266;7.920;2023-06-22T14:17:09;28.40;54.90
29663;DHT22;16578;53.266;7.920;2023-06-22T14:19:35;28.30;54.50
29663;DHT22;16578;53.266;7.920;2023-06-22T14:22:01;28.30;54.50
29663;DHT22;16578;53.266;7.920;2023-06-22T14:24:27;28.20;54.50
29663;DHT22;16578;53.266;7.920;2023-06-22T14:26:53;28.10;54.20
29663;DHT22;16578;53.266;7.920;2023-06-22T14:29:18;28.10;54.40
29663;DHT22;16578;53.266;7.920;2023-06-22T14:31:45;28.00;54.30
29663;DHT22;16578;53.266;7.920;2023-06-22T14:34:11;28.00;54.70
29663;DHT22;16578;53.266;7.920;2023-06-22T14:36:37;27.90;54.70
29663;DHT22;16578;53.266;7.920;2023-06-22T14:39:02;27.90;55.00
29663;DHT22;16578;53.266;7.920;2023-06-22T14:41:30;27.90;54.70
29663;DHT22;16578;53.266;7.920;2023-06-22T14:43:55;27.80;54.70
29663;DHT22;16578;53.266;7.920;2023-06-22T14:46:21;27.80;54.70
29663;DHT22;16578;53.266;7.920;2023-06-22T14:48:46;27.80;54.60
29663;DHT22;16578;53.266;7.920;2023-06-22T14:51:12;27.70;54.50
29663;DHT22;16578;53.266;7.920;2023-06-22T14:53:38;27.60;54.90
29663;DHT22;16578;53.266;7.920;2023-06-22T14:56:04;27.60;54.70
29663;DHT22;16578;53.266;7.920;2023-06-22T14:58:30;27.60;54.40
29663;DHT22;16578;53.266;7.920;2023-06-22T15:00:59;27.50;54.20
29663;DHT22;16578;53.266;7.920;2023-06-22T15:03:24;27.40;54.40
29663;DHT22;16578;53.266;7.920;2023-06-22T15:05:53;27.30;54.20
29663;DHT22;16578;53.266;7.920;2023-06-22T15:08:19;27.30;54.30
29663;DHT22;16578;53.266;7.920;2023-06-22T15:10:44;27.20;54.10
29663;DHT22;16578;53.266;7.920;2023-06-22T15:13:10;27.10;54.00
29663;DHT22;16578;53.266;7.920;2023-06-22T15:15:36;27.10;53.90
29663;DHT22;16578;53.266;7.920;2023-06-22T15:18:02;27.00;54.00
29663;DHT22;16578;53.266;7.920;2023-06-22T15:20:27;26.90;54.90
29663;DHT22;16578;53.266;7.920;2023-06-22T15:22:53;26.90;54.50
29663;DHT22;16578;53.266;7.920;2023-06-22T15:25:19;26.80;54.40
29663;DHT22;16578;53.266;7.920;2023-06-22T15:27:44;26.70;54.30
29663;DHT22;16578;53.266;7.920;2023-06-22T15:30:10;26.70;55.00
29663;DHT22;16578;53.266;7.920;2023-06-22T15:32:36;26.60;54.70
29663;DHT22;16578;53.266;7.920;2023-06-22T15:35:01;26.60;54.70